Time;durP1;ratioP1;P1;durP2;ratioP2;P2;SDS_P1;SDS_P2;PMS_P1;PMS_P2;Temp;Humidity;BMP_temperature;BMP_pressure;BME280_temperature;BME280_humidity;BME280_pressure;Samples;Min_cycle;Max_cycle;Signal;HPM_P1;HPM_P2
2022/11/13 00:00:03;;;;;;;5.43;3.80;;;7.70;99.90;;;;;;5017731;28;20292;-86
2022/11/13 00:02:35;;;;;;;6.03;4.00;;;7.60;99.90;;;;;;5016947;28;20260;-88
2022/11/13 00:05:08;;;;;;;6.10;3.87;;;7.50;99.90;;;;;;5017648;28;20206;-86
2022/11/13 00:07:41;;;;;;;5.43;4.00;;;7.40;99.90;;;;;;5016639;28;20271;-86
2022/11/13 00:10:13;;;;;;;6.23;4.03;;;7.30;99.90;;;;;;5018611;28;20209;-86
2022/11/13 00:12:45;;;;;;;5.77;3.50;;;7.20;99.90;;;;;;5017179;28;20292;-87
2022/11/13 00:15:16;;;;;;;4.23;3.63;;;7.10;99.90;;;;;;5019507;28;20300;-86
2022/11/13 00:17:47;;;;;;;6.37;3.30;;;7.00;99.90;;;;;;5018611;28;20293;-86
2022/11/13 00:20:18;;;;;;;4.63;3.60;;;6.90;99.90;;;;;;5018056;28;20247;-86
2022/11/13 00:22:52;;;;;;;5.83;4.30;;;6.80;99.90;;;;;;5017976;28;20276;-85
2022/11/13 00:25:24;;;;;;;6.20;4.00;;;6.70;99.90;;;;;;5014395;28;20202;-87
2022/11/13 00:27:56;;;;;;;5.23;3.67;;;6.60;99.90;;;;;;5016040;28;20236;-84
2022/11/13 00:30:26;;;;;;;5.70;3.80;;;6.50;99.90;;;;;;5017429;28;20206;-87
2022/11/13 00:32:59;;;;;;;4.90;3.70;;;6.40;99.90;;;;;;5016417;28;20213;-86
2022/11/13 00:35:30;;;;;;;6.27;4.23;;;6.40;99.90;;;;;;5016379;28;20305;-86
2022/11/13 00:38:04;;;;;;;5.00;4.40;;;6.30;99.90;;;;;;5017063;28;20283;-86
2022/11/13 00:40:35;;;;;;;8.50;5.80;;;6.20;99.90;;;;;;5014461;28;20217;-86
2022/11/13 00:43:07;;;;;;;7.90;5.90;;;6.10;99.90;;;;;;5021486;28;20260;-86
2022/11/13 00:45:39;;;;;;;6.47;5.50;;;6.00;99.90;;;;;;5036333;28;20204;-86
2022/11/13 00:48:10;;;;;;;5.73;4.97;;;6.00;99.90;;;;;;5036073;28;20213;-86
2022/11/13 00:50:43;;;;;;;5.73;5.07;;;5.90;99.90;;;;;;5035065;28;20311;-86
2022/11/13 00:53:16;;;;;;;6.97;5.30;;;5.80;99.90;;;;;;5034803;28;20248;-85
2022/11/13 00:55:48;;;;;;;6.90;5.37;;;5.70;99.90;;;;;;5035706;28;20291;-86
2022/11/13 00:58:19;;;;;;;9.17;6.00;;;5.70;99.90;;;;;;5035839;28;20266;-86
2022/11/13 01:00:51;;;;;;;8.10;6.50;;;5.60;99.90;;;;;;5034398;28;20628;-86
2022/11/13 01:03:23;;;;;;;9.43;7.30;;;5.60;99.90;;;;;;5033336;28;20237;-86
2022/11/13 01:05:54;;;;;;;7.40;5.70;;;5.50;99.90;;;;;;5034094;28;20201;-86
2022/11/13 01:08:28;;;;;;;6.53;5.23;;;5.40;99.90;;;;;;5033931;28;20235;-87
2022/11/13 01:11:00;;;;;;;7.53;4.20;;;5.30;99.90;;;;;;5033558;28;20576;-86
2022/11/13 01:13:32;;;;;;;6.37;4.27;;;5.20;99.90;;;;;;5033547;28;20665;-87
2022/11/13 01:16:07;;;;;;;5.27;4.20;;;5.10;99.90;;;;;;5034137;28;20197;-86
2022/11/13 01:18:40;;;;;;;6.27;4.20;;;5.00;99.90;;;;;;5033467;28;20251;-86
2022/11/13 01:21:13;;;;;;;6.47;4.40;;;5.00;99.90;;;;;;5033488;28;20244;-86
2022/11/13 01:23:46;;;;;;;5.53;4.33;;;4.90;99.90;;;;;;5029248;28;20253;-86
2022/11/13 01:26:20;;;;;;;8.37;5.60;;;4.80;99.90;;;;;;5013926;28;20208;-86
2022/11/13 01:28:52;;;;;;;9.77;6.83;;;4.80;99.90;;;;;;5012688;28;20216;-91
2022/11/13 01:31:25;;;;;;;8.37;6.37;;;4.70;99.90;;;;;;5007747;28;20233;-87
2022/11/13 01:33:56;;;;;;;7.87;6.73;;;4.70;99.90;;;;;;4664545;28;10000156;-87
2022/11/13 01:36:29;;;;;;;10.30;6.87;;;4.60;99.90;;;;;;5008998;28;20972;-86
2022/11/13 01:39:07;;;;;;;7.50;6.70;;;4.60;99.90;;;;;;5007566;28;20263;-88
2022/11/13 01:41:37;;;;;;;8.40;6.23;;;4.60;99.90;;;;;;5010469;28;20211;-88
2022/11/13 01:44:13;;;;;;;8.00;6.70;;;4.60;99.90;;;;;;5007845;28;20232;-86
2022/11/13 01:46:48;;;;;;;16.60;7.33;;;4.50;99.90;;;;;;5012694;28;20240;-88
2022/11/13 01:49:31;;;;;;;9.33;6.77;;;4.50;99.90;;;;;;5012903;28;20268;-88
2022/11/13 01:52:09;;;;;;;9.17;6.00;;;4.40;99.90;;;;;;5007219;28;20228;-88
2022/11/13 01:54:46;;;;;;;11.13;6.70;;;4.50;99.90;;;;;;5010937;28;20237;-84
2022/11/13 01:57:18;;;;;;;9.50;6.83;;;4.40;99.90;;;;;;5004736;28;20260;-86
2022/11/13 01:59:54;;;;;;;8.03;5.93;;;4.40;99.90;;;;;;5013177;28;20583;-87
2022/11/13 02:02:25;;;;;;;7.87;5.50;;;4.40;99.90;;;;;;5009157;28;20224;-89
2022/11/13 02:04:57;;;;;;;6.97;5.50;;;4.30;99.90;;;;;;5010490;28;20310;-87
2022/11/13 02:07:28;;;;;;;11.27;5.97;;;4.30;99.90;;;;;;5005697;28;20220;-86
2022/11/13 02:10:02;;;;;;;21.20;12.67;;;4.20;99.90;;;;;;5009572;28;20688;-87
2022/11/13 02:12:37;;;;;;;54.87;27.80;;;4.20;99.90;;;;;;5003147;28;20243;-86
2022/11/13 02:15:10;;;;;;;8.50;6.27;;;4.20;99.90;;;;;;5010585;28;20201;-89
2022/11/13 02:17:49;;;;;;;8.57;5.87;;;4.10;99.90;;;;;;5007182;28;20522;-90
2022/11/13 02:20:28;;;;;;;8.63;5.80;;;4.10;99.90;;;;;;5008978;28;20665;-87
2022/11/13 02:23:04;;;;;;;8.13;5.73;;;4.10;99.90;;;;;;5011308;28;20248;-89
2022/11/13 02:25:41;;;;;;;8.37;5.67;;;4.00;99.90;;;;;;5012297;28;20320;-88
2022/11/13 02:28:12;;;;;;;8.03;5.97;;;3.90;99.90;;;;;;5011781;28;20206;-88
2022/11/13 02:30:44;;;;;;;7.53;5.53;;;3.90;99.90;;;;;;5011210;28;20292;-87
2022/11/13 02:33:25;;;;;;;9.10;5.47;;;3.80;99.90;;;;;;5007144;28;20717;-88
2022/11/13 02:35:56;;;;;;;7.70;5.03;;;3.80;99.90;;;;;;5009263;28;20243;-86
2022/11/13 02:38:28;;;;;;;7.90;5.53;;;3.80;99.90;;;;;;5010023;28;20210;-86
2022/11/13 02:41:02;;;;;;;7.13;5.50;;;3.80;99.90;;;;;;5013399;28;20201;-86
2022/11/13 02:43:34;;;;;;;8.53;5.23;;;3.70;99.90;;;;;;5010929;28;20206;-87
2022/11/13 02:46:05;;;;;;;9.40;5.30;;;3.70;99.90;;;;;;5010422;28;20320;-87
2022/11/13 02:48:37;;;;;;;8.07;5.50;;;3.60;99.90;;;;;;5007039;28;20201;-86
2022/11/13 02:51:08;;;;;;;6.30;5.00;;;3.60;99.90;;;;;;5011129;28;20236;-87
2022/11/13 02:53:40;;;;;;;6.83;5.00;;;3.50;99.90;;;;;;5002360;28;20233;-87
2022/11/13 02:56:14;;;;;;;7.70;5.10;;;3.50;99.90;;;;;;5008143;28;20269;-87
2022/11/13 02:58:45;;;;;;;9.90;5.33;;;3.40;99.90;;;;;;5010393;28;20320;-86
2022/11/13 03:01:17;;;;;;;7.37;5.13;;;3.40;99.90;;;;;;5010513;28;20641;-88
2022/11/13 03:03:50;;;;;;;7.20;5.13;;;3.30;99.90;;;;;;5016935;28;20557;-86
2022/11/13 03:06:28;;;;;;;9.37;5.17;;;3.40;99.90;;;;;;5017817;28;20340;-87
2022/11/13 03:09:00;;;;;;;7.00;5.03;;;3.30;99.90;;;;;;5009099;28;20255;-87
2022/11/13 03:11:33;;;;;;;8.10;5.70;;;3.30;99.90;;;;;;5008818;28;20293;-86
2022/11/13 03:14:05;;;;;;;10.00;5.13;;;3.30;99.90;;;;;;5016326;28;20202;-87
2022/11/13 03:16:38;;;;;;;10.60;6.30;;;3.30;99.90;;;;;;5013055;28;20296;-93
2022/11/13 03:19:09;;;;;;;11.37;6.30;;;3.30;99.90;;;;;;5009754;28;20275;-90
2022/11/13 03:21:40;;;;;;;12.70;6.77;;;3.30;99.90;;;;;;5005795;28;20216;-89
2022/11/13 03:24:12;;;;;;;11.90;6.67;;;3.30;99.90;;;;;;4998782;28;20206;-91
2022/11/13 03:26:45;;;;;;;12.40;6.80;;;3.20;99.90;;;;;;5007308;28;20202;-89
2022/11/13 03:29:17;;;;;;;9.77;6.50;;;3.20;99.90;;;;;;5009127;28;20293;-92
2022/11/13 03:31:48;;;;;;;8.73;6.37;;;3.20;99.90;;;;;;5010813;28;20197;-92
2022/11/13 03:34:20;;;;;;;11.53;6.40;;;3.10;99.90;;;;;;5012135;28;20287;-88
2022/11/13 03:36:53;;;;;;;10.63;6.13;;;3.10;99.90;;;;;;5007466;28;20205;-89
2022/11/13 03:39:24;;;;;;;10.57;7.17;;;3.10;99.90;;;;;;5008633;28;20289;-88
2022/11/13 03:41:59;;;;;;;12.43;7.50;;;3.10;99.90;;;;;;5013676;28;20206;-89
2022/11/13 03:44:31;;;;;;;14.80;8.73;;;3.10;99.90;;;;;;5023261;28;20277;-86
2022/11/13 03:47:02;;;;;;;16.17;9.27;;;3.00;99.90;;;;;;5023517;28;20206;-88
2022/11/13 03:49:33;;;;;;;14.83;8.50;;;3.00;99.90;;;;;;5023394;28;20262;-86
2022/11/13 03:52:06;;;;;;;17.63;9.70;;;3.00;99.90;;;;;;5007484;28;20252;-87
2022/11/13 03:54:37;;;;;;;13.40;8.43;;;3.00;99.90;;;;;;5009445;28;20236;-85
2022/11/13 03:57:11;;;;;;;14.10;9.20;;;2.90;99.90;;;;;;5012700;28;20670;-89
2022/11/13 03:59:43;;;;;;;14.50;8.70;;;2.90;99.90;;;;;;5010302;28;20209;-87
2022/11/13 04:02:15;;;;;;;12.50;8.63;;;2.90;99.90;;;;;;5014736;28;20610;-87
2022/11/13 04:04:46;;;;;;;16.60;9.77;;;2.90;99.90;;;;;;5015203;28;20298;-88
2022/11/13 04:07:21;;;;;;;20.00;10.20;;;2.90;99.90;;;;;;5015186;28;20240;-88
2022/11/13 04:09:52;;;;;;;24.23;10.83;;;2.90;99.90;;;;;;5014950;28;20573;-91
2022/11/13 04:12:26;;;;;;;17.93;10.47;;;2.90;99.90;;;;;;5009992;28;20811;-87
2022/11/13 04:14:57;;;;;;;22.90;11.93;;;2.90;99.90;;;;;;5011582;28;20206;-87
2022/11/13 04:17:29;;;;;;;31.10;14.30;;;2.90;99.90;;;;;;5012764;28;20201;-88
2022/11/13 04:20:00;;;;;;;35.60;16.50;;;2.80;99.90;;;;;;5010780;28;20659;-91
2022/11/13 04:22:33;;;;;;;35.20;16.43;;;2.80;99.90;;;;;;5018107;28;20297;-86
2022/11/13 04:25:06;;;;;;;34.87;15.40;;;2.80;99.90;;;;;;5011022;28;20212;-89
2022/11/13 04:27:40;;;;;;;30.50;13.70;;;2.70;99.90;;;;;;5012837;28;20304;-88
2022/11/13 04:30:12;;;;;;;20.60;11.43;;;2.70;99.90;;;;;;5010821;28;20292;-87
2022/11/13 04:32:43;;;;;;;19.87;10.57;;;2.70;99.90;;;;;;5015575;28;20210;-87
2022/11/13 04:35:14;;;;;;;21.17;11.67;;;2.60;99.90;;;;;;5015872;28;20292;-92
2022/11/13 04:37:46;;;;;;;27.30;13.40;;;2.60;99.90;;;;;;5017405;28;20206;-90
2022/11/13 04:40:18;;;;;;;27.30;13.30;;;2.70;99.90;;;;;;5014442;28;20213;-89
2022/11/13 04:42:50;;;;;;;18.17;10.83;;;2.60;99.90;;;;;;5013670;28;20280;-89
2022/11/13 04:45:22;;;;;;;18.40;10.27;;;2.60;99.90;;;;;;5010532;28;20247;-91
2022/11/13 04:47:54;;;;;;;18.80;10.67;;;2.60;99.90;;;;;;5011920;28;20241;-89
2022/11/13 04:50:25;;;;;;;16.13;10.67;;;2.50;99.90;;;;;;5007134;28;20797;-89
2022/11/13 04:52:57;;;;;;;19.07;13.47;;;2.50;99.90;;;;;;5012085;28;20202;-92
2022/11/13 04:55:28;;;;;;;18.57;10.77;;;2.50;99.90;;;;;;5011148;28;20232;-92
2022/11/13 04:58:01;;;;;;;14.17;9.63;;;2.50;99.90;;;;;;5014046;28;20221;-93
2022/11/13 05:00:33;;;;;;;19.67;10.50;;;2.40;99.90;;;;;;5009609;28;20229;-95
2022/11/13 05:03:09;;;;;;;15.27;9.00;;;2.40;99.90;;;;;;5026407;28;20297;-92
2022/11/13 05:05:41;;;;;;;13.20;9.20;;;2.40;99.90;;;;;;5010746;28;21042;-94
2022/11/13 05:08:12;;;;;;;14.37;9.33;;;2.40;99.90;;;;;;5017974;28;20294;-93
2022/11/13 05:10:44;;;;;;;15.37;9.57;;;2.40;99.90;;;;;;5016771;28;20213;-94
2022/11/13 05:13:18;;;;;;;13.80;10.17;;;2.40;99.90;;;;;;5014487;28;20202;-93
2022/11/13 05:15:49;;;;;;;16.77;10.10;;;2.30;99.90;;;;;;5009038;28;20249;-94
2022/11/13 05:18:21;;;;;;;17.83;10.17;;;2.30;99.90;;;;;;5015229;28;20259;-95
2022/11/13 05:20:53;;;;;;;19.90;11.07;;;2.30;99.90;;;;;;5034966;28;20204;-96
2022/11/13 05:23:25;;;;;;;16.83;10.67;;;2.30;99.90;;;;;;5028360;28;20201;-95
2022/11/13 05:26:03;;;;;;;23.27;10.70;;;2.30;99.90;;;;;;5018015;28;20265;-93
2022/11/13 05:28:40;;;;;;;15.93;9.67;;;2.30;99.90;;;;;;5009999;28;20312;-91
2022/11/13 05:31:14;;;;;;;16.87;10.13;;;2.30;99.90;;;;;;5009472;28;20221;-93
2022/11/13 05:33:48;;;;;;;20.07;10.73;;;2.20;99.90;;;;;;5009368;28;20233;-94
2022/11/13 05:36:20;;;;;;;16.03;10.10;;;2.20;99.90;;;;;;5011675;28;20244;-95
2022/11/13 05:38:52;;;;;;;20.63;10.63;;;2.20;99.90;;;;;;5006114;28;20217;-93
2022/11/13 05:41:24;;;;;;;23.20;11.17;;;2.20;99.90;;;;;;5012156;28;20233;-92
2022/11/13 05:43:58;;;;;;;20.60;10.43;;;2.10;99.90;;;;;;5009371;28;20289;-92
2022/11/13 05:46:31;;;;;;;20.00;10.50;;;2.10;99.90;;;;;;5003694;28;20355;-92
2022/11/13 05:49:03;;;;;;;19.67;11.80;;;2.10;99.90;;;;;;5010653;28;20213;-92
2022/11/13 05:51:35;;;;;;;19.63;11.03;;;2.00;99.90;;;;;;5006512;28;20210;-93
2022/11/13 05:54:06;;;;;;;14.57;9.37;;;2.00;99.90;;;;;;5008793;28;20218;-95
2022/11/13 05:56:39;;;;;;;11.63;7.67;;;1.90;99.90;;;;;;5008443;28;20232;-92
2022/11/13 05:59:12;;;;;;;9.77;7.83;;;1.90;99.90;;;;;;5010671;28;20341;-90
2022/11/13 06:01:44;;;;;;;10.23;7.33;;;1.90;99.90;;;;;;5012753;28;20237;-92
2022/11/13 06:04:15;;;;;;;9.13;7.47;;;1.90;99.90;;;;;;5009524;28;20284;-92
2022/11/13 06:06:46;;;;;;;9.93;7.80;;;1.80;99.90;;;;;;5008896;28;20247;-93
2022/11/13 06:09:18;;;;;;;10.53;7.90;;;1.70;99.90;;;;;;5006277;28;20209;-92
2022/11/13 06:11:50;;;;;;;11.07;8.37;;;1.80;99.90;;;;;;5012316;28;20568;-93
2022/11/13 06:14:23;;;;;;;11.40;8.40;;;1.70;99.90;;;;;;5010983;28;20827;-92
2022/11/13 06:16:54;;;;;;;17.40;9.77;;;1.60;99.90;;;;;;5012064;28;20241;-93
2022/11/13 06:19:26;;;;;;;17.80;9.90;;;1.60;99.90;;;;;;5007887;28;20217;-91
2022/11/13 06:21:58;;;;;;;20.97;10.67;;;1.60;99.90;;;;;;5007457;28;20237;-92
2022/11/13 06:24:32;;;;;;;21.27;11.20;;;1.60;99.90;;;;;;5007810;28;20229;-94
2022/11/13 06:27:05;;;;;;;21.57;11.00;;;1.60;99.90;;;;;;5016865;28;20225;-95
2022/11/13 06:29:38;;;;;;;21.40;11.17;;;1.60;99.90;;;;;;5015394;28;20959;-94
2022/11/13 06:32:10;;;;;;;21.27;11.67;;;1.60;99.90;;;;;;5016034;28;20293;-95
2022/11/13 06:34:41;;;;;;;20.00;11.67;;;1.60;99.90;;;;;;5011962;28;20216;-94
2022/11/13 06:37:13;;;;;;;14.77;9.47;;;1.60;99.90;;;;;;5014649;28;20210;-94
2022/11/13 06:39:44;;;;;;;13.93;9.33;;;1.60;99.90;;;;;;5013260;28;20211;-93
2022/11/13 06:42:15;;;;;;;14.23;8.57;;;1.60;99.90;;;;;;5011981;28;20393;-91
2022/11/13 06:44:49;;;;;;;13.73;8.20;;;1.60;99.90;;;;;;5008270;28;20283;-92
2022/11/13 06:47:21;;;;;;;13.10;8.57;;;1.50;99.90;;;;;;5005683;28;20265;-91
2022/11/13 06:49:53;;;;;;;12.13;7.70;;;1.40;99.90;;;;;;5007402;28;20298;-91
2022/11/13 06:52:24;;;;;;;10.87;7.93;;;1.40;99.90;;;;;;5004649;28;20629;-92
2022/11/13 06:54:56;;;;;;;12.27;7.60;;;1.40;99.90;;;;;;5008345;28;20213;-92
2022/11/13 06:57:29;;;;;;;11.77;7.87;;;1.40;99.90;;;;;;5010913;28;20245;-90
2022/11/13 07:00:03;;;;;;;9.20;7.07;;;1.30;99.90;;;;;;5013668;28;20260;-91
2022/11/13 07:02:34;;;;;;;9.27;6.50;;;1.30;99.90;;;;;;5007200;28;20217;-92
2022/11/13 07:05:06;;;;;;;9.23;6.97;;;1.20;99.90;;;;;;5010244;28;20213;-93
2022/11/13 07:07:37;;;;;;;7.57;6.33;;;1.20;99.90;;;;;;5010937;28;20312;-92
2022/11/13 07:10:09;;;;;;;10.00;6.87;;;1.20;99.90;;;;;;5006898;28;20223;-92
2022/11/13 07:12:40;;;;;;;10.57;7.13;;;1.10;99.90;;;;;;4664205;28;9999877;-90
2022/11/13 07:15:15;;;;;;;11.17;7.27;;;1.10;99.90;;;;;;5001825;28;20209;-91
2022/11/13 07:17:47;;;;;;;12.83;7.03;;;1.10;99.90;;;;;;5010772;28;20201;-91
2022/11/13 07:20:22;;;;;;;9.90;7.67;;;1.10;99.90;;;;;;5012316;28;20251;-92
2022/11/13 07:22:57;;;;;;;11.93;7.73;;;1.10;99.90;;;;;;5012166;28;20209;-93
2022/11/13 07:25:29;;;;;;;9.13;7.00;;;1.20;99.90;;;;;;5017242;28;20224;-92
2022/11/13 07:28:01;;;;;;;9.33;7.53;;;1.20;99.90;;;;;;5012950;28;20245;-92
2022/11/13 07:30:34;;;;;;;9.80;7.30;;;1.30;99.90;;;;;;5013977;28;20210;-92
2022/11/13 07:33:06;;;;;;;10.97;7.17;;;1.30;99.90;;;;;;5024299;28;20224;-91
2022/11/13 07:35:39;;;;;;;10.37;7.57;;;1.30;99.90;;;;;;5035602;28;20193;-91
2022/11/13 07:38:12;;;;;;;9.90;6.83;;;1.30;99.90;;;;;;5025933;28;20239;-92
2022/11/13 07:40:43;;;;;;;9.60;6.97;;;1.40;99.90;;;;;;5017730;28;20273;-92
2022/11/13 07:43:14;;;;;;;8.77;6.70;;;1.40;99.90;;;;;;5013833;28;20269;-91
2022/11/13 07:45:53;;;;;;;10.80;6.30;;;1.50;99.90;;;;;;5015546;28;20283;-91
2022/11/13 07:48:26;;;;;;;9.57;6.37;;;1.60;99.90;;;;;;5011380;28;20773;-91
2022/11/13 07:51:02;;;;;;;8.47;6.00;;;1.70;99.90;;;;;;5015003;28;20213;-91
2022/11/13 07:53:34;;;;;;;7.90;5.80;;;1.70;99.90;;;;;;5013043;28;20208;-92
2022/11/13 07:56:07;;;;;;;9.30;5.63;;;1.70;99.90;;;;;;5012666;28;20304;-92
2022/11/13 07:58:38;;;;;;;8.43;5.80;;;1.80;99.90;;;;;;5005984;28;20289;-90
2022/11/13 08:01:12;;;;;;;7.77;6.17;;;1.80;99.90;;;;;;5012428;28;20238;-91
2022/11/13 08:03:43;;;;;;;9.60;5.80;;;1.90;99.90;;;;;;5004990;28;20210;-91
2022/11/13 08:06:15;;;;;;;7.67;6.07;;;1.90;99.90;;;;;;5012347;28;20205;-91
2022/11/13 08:08:49;;;;;;;9.47;6.50;;;1.90;99.90;;;;;;5013348;28;20312;-91
2022/11/13 08:11:21;;;;;;;8.37;6.13;;;2.00;99.90;;;;;;5011648;28;20219;-91
2022/11/13 08:13:54;;;;;;;7.60;5.50;;;2.00;99.90;;;;;;5015465;28;20304;-92
2022/11/13 08:16:30;;;;;;;8.97;6.30;;;2.00;99.90;;;;;;5015177;28;20293;-92
2022/11/13 08:19:01;;;;;;;7.47;5.67;;;2.10;99.90;;;;;;5024902;28;20251;-92
2022/11/13 08:21:32;;;;;;;8.37;5.97;;;2.20;99.90;;;;;;5024565;28;20205;-91
2022/11/13 08:24:04;;;;;;;9.80;6.43;;;2.10;99.90;;;;;;5015463;28;20699;-92
2022/11/13 08:26:38;;;;;;;8.63;6.30;;;2.10;99.90;;;;;;5015313;28;20255;-90
2022/11/13 08:29:09;;;;;;;7.87;5.90;;;2.10;99.90;;;;;;5012557;28;20241;-91
2022/11/13 08:31:43;;;;;;;8.17;5.80;;;2.10;99.90;;;;;;5015302;28;20297;-91
2022/11/13 08:34:14;;;;;;;7.77;6.27;;;2.20;99.90;;;;;;5010597;28;20213;-92
2022/11/13 08:36:46;;;;;;;7.60;5.67;;;2.20;99.90;;;;;;5008077;28;20289;-91
2022/11/13 08:39:17;;;;;;;9.00;6.70;;;2.10;99.90;;;;;;5016435;28;20300;-91
2022/11/13 08:41:50;;;;;;;8.13;5.97;;;2.10;99.90;;;;;;5016857;28;20236;-92
2022/11/13 08:44:21;;;;;;;9.77;6.53;;;2.10;99.90;;;;;;5017722;28;20209;-91
2022/11/13 08:46:54;;;;;;;9.03;6.53;;;2.20;99.90;;;;;;5019403;28;20205;-91
2022/11/13 08:49:26;;;;;;;8.90;6.60;;;2.20;99.90;;;;;;5016521;28;20231;-91
2022/11/13 08:51:58;;;;;;;7.43;6.03;;;2.20;99.90;;;;;;5010431;28;20233;-94
2022/11/13 08:54:30;;;;;;;9.00;6.30;;;2.20;99.90;;;;;;5016417;28;20288;-91
2022/11/13 08:57:01;;;;;;;9.63;6.30;;;2.20;99.90;;;;;;5007082;28;20201;-91
2022/11/13 08:59:35;;;;;;;7.47;5.83;;;2.20;99.90;;;;;;5030349;28;20205;-91
2022/11/13 09:02:08;;;;;;;10.03;5.83;;;2.30;99.90;;;;;;5016526;28;20201;-91
2022/11/13 09:04:40;;;;;;;7.97;5.63;;;2.30;99.90;;;;;;5019650;28;20293;-91
2022/11/13 09:07:12;;;;;;;7.70;6.10;;;2.30;99.90;;;;;;5019861;28;20205;-91
2022/11/13 09:09:43;;;;;;;7.77;5.67;;;2.30;99.90;;;;;;5010827;28;20695;-92
2022/11/13 09:12:15;;;;;;;6.80;5.60;;;2.40;99.90;;;;;;5014881;28;20269;-92
2022/11/13 09:14:47;;;;;;;7.97;5.37;;;2.40;99.90;;;;;;5009090;28;20268;-91
2022/11/13 09:17:20;;;;;;;7.67;5.67;;;2.40;99.90;;;;;;5018087;28;20885;-92
2022/11/13 09:19:51;;;;;;;7.53;5.57;;;2.50;99.90;;;;;;5018554;28;20300;-92
2022/11/13 09:22:24;;;;;;;8.23;6.33;;;2.40;99.90;;;;;;5004872;28;20229;-92
2022/11/13 09:24:55;;;;;;;9.83;6.20;;;2.40;99.90;;;;;;5016448;28;20205;-89
2022/11/13 09:27:26;;;;;;;7.60;6.30;;;2.30;99.90;;;;;;5016062;28;20233;-91
2022/11/13 09:29:57;;;;;;;9.17;6.00;;;2.40;99.90;;;;;;5015877;28;20239;-91
2022/11/13 09:32:30;;;;;;;7.97;6.00;;;2.40;99.90;;;;;;5012397;28;20205;-91
2022/11/13 09:35:03;;;;;;;10.70;6.07;;;2.40;99.90;;;;;;5014183;28;20197;-91
2022/11/13 09:37:35;;;;;;;8.17;6.17;;;2.40;99.90;;;;;;5026651;28;20236;-92
2022/11/13 09:40:13;;;;;;;9.37;5.73;;;2.40;99.90;;;;;;5033191;28;20212;-91
2022/11/13 09:42:44;;;;;;;9.77;6.07;;;2.50;99.90;;;;;;5027270;28;20232;-93
2022/11/13 09:45:17;;;;;;;8.60;6.30;;;2.60;99.90;;;;;;5031207;28;20206;-92
2022/11/13 09:47:52;;;;;;;8.77;6.70;;;2.50;99.90;;;;;;5028200;28;20209;-91
2022/11/13 09:50:27;;;;;;;9.77;6.37;;;2.50;99.90;;;;;;5026865;28;20218;-91
2022/11/13 09:52:58;;;;;;;9.93;6.40;;;2.60;99.90;;;;;;5029016;28;20193;-92
2022/11/13 09:55:36;;;;;;;9.47;6.30;;;2.50;99.90;;;;;;5021998;28;20252;-91
2022/11/13 09:58:13;;;;;;;9.03;5.87;;;2.60;99.90;;;;;;5019160;28;20324;-91
2022/11/13 10:00:45;;;;;;;9.37;6.53;;;2.60;99.90;;;;;;5017927;28;20197;-92
2022/11/13 10:03:33;;;;;;;8.87;6.47;;;2.60;99.90;;;;;;5018873;28;20201;-91
2022/11/13 10:06:34;;;;;;;8.40;7.17;;;2.60;99.90;;;;;;5019664;28;20204;-91
2022/11/13 10:09:18;;;;;;;8.17;6.70;;;2.60;99.90;;;;;;5015520;28;20244;-92
2022/11/13 10:11:55;;;;;;;8.30;6.17;;;2.60;99.90;;;;;;5014705;28;20205;-91
2022/11/13 10:14:30;;;;;;;7.63;6.57;;;2.60;99.90;;;;;;5015358;28;20239;-91
2022/11/13 10:17:07;;;;;;;8.03;6.53;;;2.70;99.90;;;;;;5014845;28;20201;-91
2022/11/13 10:19:48;;;;;;;8.83;6.93;;;2.60;99.90;;;;;;5012665;28;20213;-91
2022/11/13 10:22:30;;;;;;;8.67;7.33;;;2.70;99.90;;;;;;5011909;28;20209;-90
2022/11/13 10:25:12;;;;;;;10.77;7.03;;;2.70;99.90;;;;;;5013452;28;20213;-91
2022/11/13 10:27:45;;;;;;;11.33;8.20;;;2.70;99.90;;;;;;4999681;28;20285;-91
2022/11/13 10:30:18;;;;;;;10.77;7.93;;;2.70;99.90;;;;;;5012707;28;20983;-91
2022/11/13 10:32:49;;;;;;;11.07;8.63;;;2.80;99.90;;;;;;5012954;28;20217;-91
2022/11/13 10:35:48;;;;;;;10.60;8.63;;;2.70;99.90;;;;;;5013184;28;20259;-92
2022/11/13 10:38:29;;;;;;;14.20;8.93;;;2.70;99.90;;;;;;5012997;28;20245;-91
2022/11/13 10:41:15;;;;;;;10.73;8.47;;;2.80;99.90;;;;;;5012828;28;20201;-92
2022/11/13 10:43:59;;;;;;;8.33;6.47;;;2.80;99.90;;;;;;4993003;28;20642;-92
2022/11/13 10:46:31;;;;;;;8.67;6.93;;;2.80;99.90;;;;;;4993902;28;20226;-91
2022/11/13 10:49:14;;;;;;;9.07;7.00;;;2.80;99.90;;;;;;4998384;28;20237;-92
2022/11/13 10:51:57;;;;;;;9.07;6.93;;;2.80;99.90;;;;;;4996871;28;20206;-91
2022/11/13 10:54:30;;;;;;;9.77;6.47;;;2.80;99.90;;;;;;5013624;28;20241;-91
2022/11/13 10:57:03;;;;;;;9.97;6.40;;;2.80;99.90;;;;;;5022640;28;20233;-91
2022/11/13 10:59:41;;;;;;;9.00;6.43;;;2.80;99.90;;;;;;5026845;28;20236;-91
2022/11/13 11:02:19;;;;;;;9.03;6.67;;;2.80;99.90;;;;;;5011924;28;20840;-91
2022/11/13 11:05:02;;;;;;;8.97;6.73;;;2.70;99.90;;;;;;5013242;28;20212;-91
2022/11/13 11:07:42;;;;;;;8.83;6.60;;;2.70;99.90;;;;;;5012763;28;20213;-92
2022/11/13 11:10:33;;;;;;;8.93;6.40;;;2.80;99.90;;;;;;5012908;28;20233;-92
2022/11/13 11:13:12;;;;;;;7.87;6.37;;;2.80;99.90;;;;;;5012417;28;20221;-91
2022/11/13 11:15:48;;;;;;;9.00;6.53;;;2.80;99.90;;;;;;5000918;28;20237;-92
2022/11/13 11:18:25;;;;;;;8.67;6.27;;;2.80;99.90;;;;;;5000728;28;20300;-92
2022/11/13 11:21:00;;;;;;;8.37;6.60;;;2.80;99.90;;;;;;5013049;28;20300;-91
2022/11/13 11:23:40;;;;;;;9.03;6.33;;;2.80;99.90;;;;;;5012177;28;20209;-90
2022/11/13 11:26:16;;;;;;;7.10;5.67;;;2.80;99.90;;;;;;5014455;28;20205;-91
2022/11/13 11:28:52;;;;;;;8.00;5.67;;;2.70;99.90;;;;;;5015073;28;20201;-91
2022/11/13 11:31:31;;;;;;;8.33;5.93;;;2.70;99.90;;;;;;5013414;28;20249;-92
2022/11/13 11:34:18;;;;;;;12.40;5.80;;;2.80;99.90;;;;;;5014609;28;20274;-92
2022/11/13 11:37:01;;;;;;;6.70;6.10;;;2.70;99.90;;;;;;5013483;28;20245;-93
2022/11/13 11:39:44;;;;;;;9.13;6.40;;;2.60;99.90;;;;;;5000222;28;20264;-91
2022/11/13 11:42:29;;;;;;;7.30;6.20;;;2.60;99.90;;;;;;4997735;28;20229;-92
2022/11/13 11:45:11;;;;;;;8.87;7.03;;;2.70;99.90;;;;;;5001892;28;20208;-91
2022/11/13 11:47:42;;;;;;;7.23;6.10;;;2.70;99.90;;;;;;5013874;28;20241;-91
2022/11/13 11:50:17;;;;;;;8.90;6.30;;;2.70;99.90;;;;;;5014056;28;20316;-91
2022/11/13 11:53:00;;;;;;;10.53;6.60;;;2.80;99.90;;;;;;5015370;28;20212;-92
2022/11/13 11:56:05;;;;;;;7.23;5.80;;;2.80;99.90;;;;;;5015996;28;20258;-91
2022/11/13 11:59:05;;;;;;;9.03;6.30;;;2.80;99.90;;;;;;5019708;28;20628;-92
2022/11/13 12:02:13;;;;;;;6.30;5.70;;;2.70;99.90;;;;;;5019670;28;20198;-92
2022/11/13 12:05:01;;;;;;;11.93;6.33;;;2.80;99.90;;;;;;4997144;28;20225;-91
2022/11/13 12:07:53;;;;;;;7.90;6.70;;;2.80;99.90;;;;;;5012890;28;20218;-91
2022/11/13 12:10:30;;;;;;;10.47;6.23;;;2.80;99.90;;;;;;5013081;28;20222;-92
2022/11/13 12:13:16;;;;;;;7.50;5.90;;;2.80;99.90;;;;;;5007547;28;20254;-91
2022/11/13 12:15:52;;;;;;;9.07;6.20;;;2.90;99.90;;;;;;5008765;28;20210;-91
2022/11/13 12:18:35;;;;;;;8.33;6.10;;;2.80;99.90;;;;;;5013306;28;20626;-92
2022/11/13 12:21:23;;;;;;;7.83;5.40;;;2.90;99.90;;;;;;5011129;28;20297;-92
2022/11/13 12:24:21;;;;;;;8.57;5.73;;;2.80;99.90;;;;;;5008988;28;20253;-93
2022/11/13 12:27:02;;;;;;;7.53;5.90;;;2.80;99.90;;;;;;5009584;28;20245;-92
2022/11/13 12:29:49;;;;;;;8.23;5.80;;;2.90;99.90;;;;;;5015716;28;20248;-92
2022/11/13 12:32:33;;;;;;;7.53;5.33;;;2.90;99.90;;;;;;5015468;28;20214;-92
2022/11/13 12:35:11;;;;;;;6.93;5.37;;;2.90;99.90;;;;;;5013928;28;20225;-92
2022/11/13 12:37:49;;;;;;;7.30;5.17;;;2.90;99.90;;;;;;5013409;28;20205;-91
2022/11/13 12:40:29;;;;;;;6.00;4.83;;;2.90;99.90;;;;;;5015467;28;20264;-92
2022/11/13 12:43:13;;;;;;;8.50;5.63;;;2.90;99.90;;;;;;5014623;28;20245;-92
2022/11/13 12:45:53;;;;;;;7.60;5.70;;;2.80;99.90;;;;;;5014792;28;20209;-93
2022/11/13 12:48:33;;;;;;;7.23;5.30;;;2.80;99.90;;;;;;5004710;28;20231;-93
2022/11/13 12:51:06;;;;;;;7.30;5.50;;;2.90;99.90;;;;;;5003122;28;20272;-92
2022/11/13 12:53:47;;;;;;;6.57;5.43;;;2.90;99.90;;;;;;5014343;28;20341;-92
2022/11/13 12:56:31;;;;;;;6.93;5.37;;;2.90;99.90;;;;;;5016439;28;20249;-92
2022/11/13 12:59:08;;;;;;;7.70;5.33;;;3.00;99.90;;;;;;5003461;28;20182;-92
2022/11/13 13:02:11;;;;;;;6.00;5.37;;;3.00;99.90;;;;;;5015771;28;20210;-92
2022/11/13 13:04:56;;;;;;;10.50;5.97;;;3.00;99.90;;;;;;5014530;28;20205;-91
2022/11/13 13:07:45;;;;;;;7.30;5.40;;;3.00;99.90;;;;;;5008584;28;20206;-92
2022/11/13 13:10:24;;;;;;;7.37;4.87;;;3.10;99.90;;;;;;5014443;28;20248;-92
2022/11/13 13:13:03;;;;;;;8.23;5.20;;;3.10;99.90;;;;;;4997536;28;20226;-91
2022/11/13 13:15:37;;;;;;;7.50;5.90;;;3.10;99.90;;;;;;5010564;28;20253;-92
2022/11/13 13:18:25;;;;;;;5.80;5.20;;;3.10;99.90;;;;;;5010034;28;20211;-91
2022/11/13 13:21:08;;;;;;;7.53;5.53;;;3.10;99.90;;;;;;5014947;28;20210;-91
2022/11/13 13:23:41;;;;;;;6.67;5.37;;;3.10;99.90;;;;;;4997122;28;20249;-91
2022/11/13 13:26:18;;;;;;;6.10;5.00;;;3.10;99.90;;;;;;5013678;28;20216;-91
2022/11/13 13:28:53;;;;;;;8.40;5.23;;;3.00;99.90;;;;;;4996655;28;20289;-92
2022/11/13 13:31:33;;;;;;;8.80;5.70;;;3.10;99.90;;;;;;5012378;28;20245;-93